sensor_id;sensor_type;location;lat;lon;timestamp;P1;durP1;ratioP1;P2;durP2;ratioP2
63046;SDS011;62025;39.238;9.126;2023-05-09T00:02:08;7.95;;;2.58;;
63046;SDS011;62025;39.238;9.126;2023-05-09T00:04:34;5.35;;;2.60;;
63046;SDS011;62025;39.238;9.126;2023-05-09T00:07:00;5.35;;;2.60;;
63046;SDS011;62025;39.238;9.126;2023-05-09T00:09:26;6.05;;;2.67;;
63046;SDS011;62025;39.238;9.126;2023-05-09T00:11:52;5.60;;;2.53;;
63046;SDS011;62025;39.238;9.126;2023-05-09T00:14:18;6.32;;;2.78;;
63046;SDS011;62025;39.238;9.126;2023-05-09T00:16:44;4.45;;;2.45;;
63046;SDS011;62025;39.238;9.126;2023-05-09T00:19:10;4.65;;;2.30;;
63046;SDS011;62025;39.238;9.126;2023-05-09T00:21:37;5.40;;;2.13;;
63046;SDS011;62025;39.238;9.126;2023-05-09T00:24:03;3.70;;;1.95;;
63046;SDS011;62025;39.238;9.126;2023-05-09T00:26:30;4.22;;;2.13;;
63046;SDS011;62025;39.238;9.126;2023-05-09T00:28:56;5.13;;;2.20;;
63046;SDS011;62025;39.238;9.126;2023-05-09T00:31:22;3.90;;;2.25;;
63046;SDS011;62025;39.238;9.126;2023-05-09T00:33:48;5.97;;;2.38;;
63046;SDS011;62025;39.238;9.126;2023-05-09T00:36:14;5.75;;;2.40;;
63046;SDS011;62025;39.238;9.126;2023-05-09T00:38:40;6.70;;;2.83;;
63046;SDS011;62025;39.238;9.126;2023-05-09T00:41:06;5.90;;;2.80;;
63046;SDS011;62025;39.238;9.126;2023-05-09T00:43:32;6.88;;;3.22;;
63046;SDS011;62025;39.238;9.126;2023-05-09T00:45:59;6.78;;;3.33;;
63046;SDS011;62025;39.238;9.126;2023-05-09T00:48:25;6.88;;;3.30;;
63046;SDS011;62025;39.238;9.126;2023-05-09T00:50:51;6.82;;;3.40;;
63046;SDS011;62025;39.238;9.126;2023-05-09T00:53:18;9.27;;;3.30;;
63046;SDS011;62025;39.238;9.126;2023-05-09T00:55:45;4.93;;;3.40;;
63046;SDS011;62025;39.238;9.126;2023-05-09T00:58:11;6.43;;;3.55;;
63046;SDS011;62025;39.238;9.126;2023-05-09T01:00:38;5.40;;;3.05;;
63046;SDS011;62025;39.238;9.126;2023-05-09T01:03:04;6.47;;;3.20;;
63046;SDS011;62025;39.238;9.126;2023-05-09T01:05:51;5.97;;;2.88;;
63046;SDS011;62025;39.238;9.126;2023-05-09T01:08:34;5.72;;;3.17;;
63046;SDS011;62025;39.238;9.126;2023-05-09T01:16:48;6.63;;;3.22;;
63046;SDS011;62025;39.238;9.126;2023-05-09T01:22:10;6.60;;;3.28;;
63046;SDS011;62025;39.238;9.126;2023-05-09T01:24:45;6.30;;;3.60;;
63046;SDS011;62025;39.238;9.126;2023-05-09T01:27:57;7.28;;;3.50;;
63046;SDS011;62025;39.238;9.126;2023-05-09T01:30:44;10.18;;;3.55;;
63046;SDS011;62025;39.238;9.126;2023-05-09T01:33:12;4.32;;;3.20;;
63046;SDS011;62025;39.238;9.126;2023-05-09T01:35:43;4.80;;;3.72;;
63046;SDS011;62025;39.238;9.126;2023-05-09T01:38:16;8.23;;;3.38;;
63046;SDS011;62025;39.238;9.126;2023-05-09T01:40:47;5.30;;;3.40;;
63046;SDS011;62025;39.238;9.126;2023-05-09T01:43:18;6.45;;;3.15;;
63046;SDS011;62025;39.238;9.126;2023-05-09T01:45:46;3.97;;;2.97;;
63046;SDS011;62025;39.238;9.126;2023-05-09T01:48:14;8.57;;;3.60;;
63046;SDS011;62025;39.238;9.126;2023-05-09T01:50:42;11.35;;;3.28;;
63046;SDS011;62025;39.238;9.126;2023-05-09T01:53:09;6.90;;;3.80;;
63046;SDS011;62025;39.238;9.126;2023-05-09T01:55:37;6.90;;;3.40;;
63046;SDS011;62025;39.238;9.126;2023-05-09T01:58:05;9.90;;;3.47;;
63046;SDS011;62025;39.238;9.126;2023-05-09T02:00:33;9.03;;;3.50;;
63046;SDS011;62025;39.238;9.126;2023-05-09T02:03:01;9.18;;;3.60;;
63046;SDS011;62025;39.238;9.126;2023-05-09T02:05:28;8.60;;;3.10;;
63046;SDS011;62025;39.238;9.126;2023-05-09T02:07:56;5.22;;;3.15;;
63046;SDS011;62025;39.238;9.126;2023-05-09T02:10:24;7.80;;;3.20;;
63046;SDS011;62025;39.238;9.126;2023-05-09T02:12:53;4.07;;;3.60;;
63046;SDS011;62025;39.238;9.126;2023-05-09T02:15:20;11.38;;;4.78;;
63046;SDS011;62025;39.238;9.126;2023-05-09T02:17:47;10.30;;;3.30;;
63046;SDS011;62025;39.238;9.126;2023-05-09T02:20:13;6.13;;;3.10;;
63046;SDS011;62025;39.238;9.126;2023-05-09T02:22:40;7.28;;;3.50;;
63046;SDS011;62025;39.238;9.126;2023-05-09T02:25:08;6.88;;;3.60;;
63046;SDS011;62025;39.238;9.126;2023-05-09T02:27:37;8.43;;;3.30;;
63046;SDS011;62025;39.238;9.126;2023-05-09T02:30:05;6.82;;;3.17;;
63046;SDS011;62025;39.238;9.126;2023-05-09T02:32:36;9.85;;;3.42;;
63046;SDS011;62025;39.238;9.126;2023-05-09T02:35:03;6.97;;;3.42;;
63046;SDS011;62025;39.238;9.126;2023-05-09T02:37:32;4.90;;;3.35;;
63046;SDS011;62025;39.238;9.126;2023-05-09T02:39:58;9.45;;;3.95;;
63046;SDS011;62025;39.238;9.126;2023-05-09T02:42:26;7.85;;;4.05;;
63046;SDS011;62025;39.238;9.126;2023-05-09T02:44:54;11.70;;;3.47;;
63046;SDS011;62025;39.238;9.126;2023-05-09T02:47:20;4.65;;;3.10;;
63046;SDS011;62025;39.238;9.126;2023-05-09T02:49:47;7.80;;;3.58;;
63046;SDS011;62025;39.238;9.126;2023-05-09T02:52:13;7.88;;;3.35;;
63046;SDS011;62025;39.238;9.126;2023-05-09T02:54:39;6.68;;;3.30;;
63046;SDS011;62025;39.238;9.126;2023-05-09T02:57:05;4.80;;;3.40;;
63046;SDS011;62025;39.238;9.126;2023-05-09T02:59:31;11.15;;;3.25;;
63046;SDS011;62025;39.238;9.126;2023-05-09T03:04:27;8.18;;;3.42;;
63046;SDS011;62025;39.238;9.126;2023-05-09T03:06:53;5.95;;;3.70;;
63046;SDS011;62025;39.238;9.126;2023-05-09T03:09:20;7.57;;;3.33;;
63046;SDS011;62025;39.238;9.126;2023-05-09T03:11:46;9.00;;;3.20;;
63046;SDS011;62025;39.238;9.126;2023-05-09T03:14:13;8.35;;;3.35;;
63046;SDS011;62025;39.238;9.126;2023-05-09T03:16:39;7.13;;;3.45;;
63046;SDS011;62025;39.238;9.126;2023-05-09T03:19:13;7.50;;;3.30;;
63046;SDS011;62025;39.238;9.126;2023-05-09T03:21:39;8.88;;;3.40;;
63046;SDS011;62025;39.238;9.126;2023-05-09T03:24:06;7.47;;;3.85;;
63046;SDS011;62025;39.238;9.126;2023-05-09T03:26:34;6.18;;;3.15;;
63046;SDS011;62025;39.238;9.126;2023-05-09T03:29:00;7.88;;;3.58;;
63046;SDS011;62025;39.238;9.126;2023-05-09T03:31:27;5.53;;;3.30;;
63046;SDS011;62025;39.238;9.126;2023-05-09T03:33:53;7.97;;;3.80;;
63046;SDS011;62025;39.238;9.126;2023-05-09T03:36:20;4.35;;;3.28;;
63046;SDS011;62025;39.238;9.126;2023-05-09T03:38:48;7.30;;;2.97;;
63046;SDS011;62025;39.238;9.126;2023-05-09T03:41:15;6.70;;;3.78;;
63046;SDS011;62025;39.238;9.126;2023-05-09T03:43:45;6.95;;;3.10;;
63046;SDS011;62025;39.238;9.126;2023-05-09T03:46:11;7.32;;;3.50;;
63046;SDS011;62025;39.238;9.126;2023-05-09T03:48:37;5.93;;;3.20;;
63046;SDS011;62025;39.238;9.126;2023-05-09T03:51:04;6.25;;;3.40;;
63046;SDS011;62025;39.238;9.126;2023-05-09T03:53:34;7.72;;;3.30;;
63046;SDS011;62025;39.238;9.126;2023-05-09T03:56:00;6.53;;;3.25;;
63046;SDS011;62025;39.238;9.126;2023-05-09T03:58:29;7.80;;;3.22;;
63046;SDS011;62025;39.238;9.126;2023-05-09T04:00:57;7.93;;;3.40;;
63046;SDS011;62025;39.238;9.126;2023-05-09T04:03:24;9.70;;;3.40;;
63046;SDS011;62025;39.238;9.126;2023-05-09T04:05:52;7.85;;;3.85;;
63046;SDS011;62025;39.238;9.126;2023-05-09T04:08:27;6.50;;;3.13;;
63046;SDS011;62025;39.238;9.126;2023-05-09T04:10:53;6.93;;;3.25;;
63046;SDS011;62025;39.238;9.126;2023-05-09T04:13:19;7.90;;;3.28;;
63046;SDS011;62025;39.238;9.126;2023-05-09T04:15:45;5.72;;;3.40;;
63046;SDS011;62025;39.238;9.126;2023-05-09T04:18:12;5.60;;;3.53;;
63046;SDS011;62025;39.238;9.126;2023-05-09T04:20:38;4.85;;;3.10;;
63046;SDS011;62025;39.238;9.126;2023-05-09T04:23:04;7.93;;;3.85;;
63046;SDS011;62025;39.238;9.126;2023-05-09T04:25:31;3.75;;;2.92;;
63046;SDS011;62025;39.238;9.126;2023-05-09T04:28:00;5.95;;;3.15;;
63046;SDS011;62025;39.238;9.126;2023-05-09T04:30:26;7.38;;;3.47;;
63046;SDS011;62025;39.238;9.126;2023-05-09T04:32:53;5.65;;;3.10;;
63046;SDS011;62025;39.238;9.126;2023-05-09T04:35:20;5.35;;;3.28;;
63046;SDS011;62025;39.238;9.126;2023-05-09T04:37:48;3.55;;;3.00;;
63046;SDS011;62025;39.238;9.126;2023-05-09T04:40:16;6.88;;;3.33;;
63046;SDS011;62025;39.238;9.126;2023-05-09T04:42:50;6.20;;;3.05;;
63046;SDS011;62025;39.238;9.126;2023-05-09T04:47:44;4.80;;;2.80;;
63046;SDS011;62025;39.238;9.126;2023-05-09T04:50:11;5.43;;;2.80;;
63046;SDS011;62025;39.238;9.126;2023-05-09T04:52:37;5.82;;;3.25;;
63046;SDS011;62025;39.238;9.126;2023-05-09T04:55:04;5.15;;;3.28;;
63046;SDS011;62025;39.238;9.126;2023-05-09T04:57:36;5.55;;;2.90;;
63046;SDS011;62025;39.238;9.126;2023-05-09T05:00:03;6.55;;;3.15;;
63046;SDS011;62025;39.238;9.126;2023-05-09T05:02:35;4.50;;;2.80;;
63046;SDS011;62025;39.238;9.126;2023-05-09T05:05:02;4.68;;;3.10;;
63046;SDS011;62025;39.238;9.126;2023-05-09T05:09:57;8.23;;;2.63;;
63046;SDS011;62025;39.238;9.126;2023-05-09T05:12:24;7.05;;;3.60;;
63046;SDS011;62025;39.238;9.126;2023-05-09T05:14:50;8.73;;;3.38;;
63046;SDS011;62025;39.238;9.126;2023-05-09T05:17:19;9.77;;;3.10;;
63046;SDS011;62025;39.238;9.126;2023-05-09T05:19:46;8.68;;;3.38;;
63046;SDS011;62025;39.238;9.126;2023-05-09T05:22:13;6.03;;;3.15;;
63046;SDS011;62025;39.238;9.126;2023-05-09T05:27:08;6.03;;;3.00;;
63046;SDS011;62025;39.238;9.126;2023-05-09T05:29:34;4.93;;;2.90;;
63046;SDS011;62025;39.238;9.126;2023-05-09T05:32:00;5.13;;;3.15;;
63046;SDS011;62025;39.238;9.126;2023-05-09T05:34:26;4.68;;;3.40;;
63046;SDS011;62025;39.238;9.126;2023-05-09T05:36:52;5.50;;;2.80;;
63046;SDS011;62025;39.238;9.126;2023-05-09T05:39:19;6.88;;;3.40;;
63046;SDS011;62025;39.238;9.126;2023-05-09T05:41:45;5.93;;;3.35;;
63046;SDS011;62025;39.238;9.126;2023-05-09T05:44:11;5.88;;;3.17;;
63046;SDS011;62025;39.238;9.126;2023-05-09T05:46:37;6.00;;;3.20;;
63046;SDS011;62025;39.238;9.126;2023-05-09T05:49:04;4.80;;;3.30;;
63046;SDS011;62025;39.238;9.126;2023-05-09T05:51:31;6.78;;;3.08;;
63046;SDS011;62025;39.238;9.126;2023-05-09T05:53:58;7.15;;;3.45;;
63046;SDS011;62025;39.238;9.126;2023-05-09T05:56:25;6.35;;;3.50;;
63046;SDS011;62025;39.238;9.126;2023-05-09T05:58:51;8.00;;;3.20;;
63046;SDS011;62025;39.238;9.126;2023-05-09T06:01:18;8.07;;;3.70;;
63046;SDS011;62025;39.238;9.126;2023-05-09T06:03:45;4.63;;;3.33;;
63046;SDS011;62025;39.238;9.126;2023-05-09T06:06:11;5.85;;;3.33;;
63046;SDS011;62025;39.238;9.126;2023-05-09T06:08:37;5.95;;;2.92;;
63046;SDS011;62025;39.238;9.126;2023-05-09T06:11:03;5.65;;;2.75;;
63046;SDS011;62025;39.238;9.126;2023-05-09T06:13:30;10.38;;;3.33;;
63046;SDS011;62025;39.238;9.126;2023-05-09T06:16:01;6.35;;;2.70;;
63046;SDS011;62025;39.238;9.126;2023-05-09T06:18:27;4.78;;;3.20;;
63046;SDS011;62025;39.238;9.126;2023-05-09T06:20:53;8.02;;;3.40;;
63046;SDS011;62025;39.238;9.126;2023-05-09T06:23:19;5.18;;;3.15;;
63046;SDS011;62025;39.238;9.126;2023-05-09T06:25:46;10.00;;;4.25;;
63046;SDS011;62025;39.238;9.126;2023-05-09T06:28:13;7.30;;;3.40;;
63046;SDS011;62025;39.238;9.126;2023-05-09T06:30:39;7.43;;;3.83;;
63046;SDS011;62025;39.238;9.126;2023-05-09T06:33:05;7.93;;;4.00;;
63046;SDS011;62025;39.238;9.126;2023-05-09T06:35:31;7.50;;;3.78;;
63046;SDS011;62025;39.238;9.126;2023-05-09T06:37:58;6.60;;;3.92;;
63046;SDS011;62025;39.238;9.126;2023-05-09T06:40:24;7.47;;;3.63;;
63046;SDS011;62025;39.238;9.126;2023-05-09T06:42:50;7.93;;;3.47;;
63046;SDS011;62025;39.238;9.126;2023-05-09T06:45:16;6.43;;;3.80;;
63046;SDS011;62025;39.238;9.126;2023-05-09T06:47:42;9.32;;;3.72;;
63046;SDS011;62025;39.238;9.126;2023-05-09T06:50:08;7.32;;;3.50;;
63046;SDS011;62025;39.238;9.126;2023-05-09T06:52:34;6.25;;;3.45;;
63046;SDS011;62025;39.238;9.126;2023-05-09T06:55:00;4.93;;;3.20;;
63046;SDS011;62025;39.238;9.126;2023-05-09T06:57:27;6.43;;;3.35;;
63046;SDS011;62025;39.238;9.126;2023-05-09T06:59:53;8.95;;;3.17;;
63046;SDS011;62025;39.238;9.126;2023-05-09T07:02:19;4.95;;;2.80;;
63046;SDS011;62025;39.238;9.126;2023-05-09T07:04:45;4.82;;;3.10;;
63046;SDS011;62025;39.238;9.126;2023-05-09T07:07:11;6.88;;;2.63;;
63046;SDS011;62025;39.238;9.126;2023-05-09T07:09:37;5.43;;;2.70;;
63046;SDS011;62025;39.238;9.126;2023-05-09T07:12:03;6.03;;;2.97;;
63046;SDS011;62025;39.238;9.126;2023-05-09T07:14:29;7.75;;;3.15;;
63046;SDS011;62025;39.238;9.126;2023-05-09T07:16:55;6.82;;;3.38;;
63046;SDS011;62025;39.238;9.126;2023-05-09T07:19:21;7.10;;;3.50;;
63046;SDS011;62025;39.238;9.126;2023-05-09T07:21:47;7.25;;;3.50;;
63046;SDS011;62025;39.238;9.126;2023-05-09T07:24:13;6.75;;;3.47;;
63046;SDS011;62025;39.238;9.126;2023-05-09T07:26:39;4.55;;;3.30;;
63046;SDS011;62025;39.238;9.126;2023-05-09T07:29:05;4.80;;;2.63;;
63046;SDS011;62025;39.238;9.126;2023-05-09T07:31:31;5.50;;;2.92;;
63046;SDS011;62025;39.238;9.126;2023-05-09T07:33:57;6.35;;;2.88;;
63046;SDS011;62025;39.238;9.126;2023-05-09T07:36:23;3.92;;;3.00;;
63046;SDS011;62025;39.238;9.126;2023-05-09T07:38:49;5.63;;;3.00;;
63046;SDS011;62025;39.238;9.126;2023-05-09T07:41:17;6.80;;;2.70;;
63046;SDS011;62025;39.238;9.126;2023-05-09T07:43:43;7.07;;;3.10;;
63046;SDS011;62025;39.238;9.126;2023-05-09T07:46:09;4.53;;;2.60;;
63046;SDS011;62025;39.238;9.126;2023-05-09T07:48:35;9.93;;;2.58;;
63046;SDS011;62025;39.238;9.126;2023-05-09T07:51:01;14.60;;;3.20;;
63046;SDS011;62025;39.238;9.126;2023-05-09T07:53:27;6.13;;;3.13;;
63046;SDS011;62025;39.238;9.126;2023-05-09T07:55:53;6.82;;;2.65;;
63046;SDS011;62025;39.238;9.126;2023-05-09T07:58:19;4.45;;;2.97;;
63046;SDS011;62025;39.238;9.126;2023-05-09T08:00:45;4.43;;;2.53;;
63046;SDS011;62025;39.238;9.126;2023-05-09T08:03:11;4.10;;;2.58;;
63046;SDS011;62025;39.238;9.126;2023-05-09T08:05:37;4.38;;;2.58;;
63046;SDS011;62025;39.238;9.126;2023-05-09T08:08:04;7.32;;;2.40;;
63046;SDS011;62025;39.238;9.126;2023-05-09T08:10:30;4.85;;;2.97;;
63046;SDS011;62025;39.238;9.126;2023-05-09T08:12:57;6.40;;;2.80;;
63046;SDS011;62025;39.238;9.126;2023-05-09T08:15:23;8.93;;;3.00;;
63046;SDS011;62025;39.238;9.126;2023-05-09T08:17:49;5.85;;;2.80;;
63046;SDS011;62025;39.238;9.126;2023-05-09T08:20:15;4.28;;;2.80;;
63046;SDS011;62025;39.238;9.126;2023-05-09T08:22:41;3.63;;;2.78;;
63046;SDS011;62025;39.238;9.126;2023-05-09T08:25:07;5.25;;;2.80;;
63046;SDS011;62025;39.238;9.126;2023-05-09T08:27:34;5.82;;;3.03;;
63046;SDS011;62025;39.238;9.126;2023-05-09T08:30:00;4.60;;;2.83;;
63046;SDS011;62025;39.238;9.126;2023-05-09T08:32:26;4.35;;;3.00;;
63046;SDS011;62025;39.238;9.126;2023-05-09T08:34:52;3.40;;;2.83;;
63046;SDS011;62025;39.238;9.126;2023-05-09T08:37:18;3.35;;;2.83;;
63046;SDS011;62025;39.238;9.126;2023-05-09T08:39:44;5.63;;;2.92;;
63046;SDS011;62025;39.238;9.126;2023-05-09T08:42:10;3.92;;;2.70;;
63046;SDS011;62025;39.238;9.126;2023-05-09T08:44:40;8.05;;;2.90;;
63046;SDS011;62025;39.238;9.126;2023-05-09T08:47:06;5.78;;;3.10;;
63046;SDS011;62025;39.238;9.126;2023-05-09T08:49:32;5.85;;;2.80;;
63046;SDS011;62025;39.238;9.126;2023-05-09T08:51:59;3.65;;;2.85;;
63046;SDS011;62025;39.238;9.126;2023-05-09T08:54:26;4.25;;;2.78;;
63046;SDS011;62025;39.238;9.126;2023-05-09T08:56:54;5.47;;;2.40;;
63046;SDS011;62025;39.238;9.126;2023-05-09T08:59:20;4.93;;;2.72;;
63046;SDS011;62025;39.238;9.126;2023-05-09T09:01:46;4.78;;;2.50;;
63046;SDS011;62025;39.238;9.126;2023-05-09T09:04:13;5.32;;;2.33;;
63046;SDS011;62025;39.238;9.126;2023-05-09T09:06:39;5.05;;;2.60;;
63046;SDS011;62025;39.238;9.126;2023-05-09T09:09:06;4.10;;;2.95;;
63046;SDS011;62025;39.238;9.126;2023-05-09T09:11:33;4.90;;;2.75;;
63046;SDS011;62025;39.238;9.126;2023-05-09T09:14:03;4.60;;;3.60;;
63046;SDS011;62025;39.238;9.126;2023-05-09T09:16:37;4.95;;;3.00;;
63046;SDS011;62025;39.238;9.126;2023-05-09T09:19:07;5.70;;;3.47;;
63046;SDS011;62025;39.238;9.126;2023-05-09T09:21:41;9.23;;;3.00;;
63046;SDS011;62025;39.238;9.126;2023-05-09T09:24:14;7.15;;;3.10;;
63046;SDS011;62025;39.238;9.126;2023-05-09T09:26:47;5.70;;;2.88;;
63046;SDS011;62025;39.238;9.126;2023-05-09T09:29:15;3.72;;;2.90;;
63046;SDS011;62025;39.238;9.126;2023-05-09T09:31:43;4.95;;;3.10;;
63046;SDS011;62025;39.238;9.126;2023-05-09T09:34:11;7.10;;;3.00;;
63046;SDS011;62025;39.238;9.126;2023-05-09T09:36:46;4.95;;;3.92;;
63046;SDS011;62025;39.238;9.126;2023-05-09T09:39:12;5.43;;;2.90;;
63046;SDS011;62025;39.238;9.126;2023-05-09T09:41:39;6.70;;;3.00;;
63046;SDS011;62025;39.238;9.126;2023-05-09T09:49:19;7.78;;;2.95;;
63046;SDS011;62025;39.238;9.126;2023-05-09T09:54:26;6.22;;;3.13;;
63046;SDS011;62025;39.238;9.126;2023-05-09T09:56:54;5.10;;;3.13;;
63046;SDS011;62025;39.238;9.126;2023-05-09T09:59:24;6.00;;;3.30;;
63046;SDS011;62025;39.238;9.126;2023-05-09T10:04:32;5.80;;;3.10;;
63046;SDS011;62025;39.238;9.126;2023-05-09T10:07:01;7.93;;;3.58;;
63046;SDS011;62025;39.238;9.126;2023-05-09T10:09:30;8.27;;;3.88;;
63046;SDS011;62025;39.238;9.126;2023-05-09T10:12:00;6.50;;;3.20;;
63046;SDS011;62025;39.238;9.126;2023-05-09T10:14:31;7.53;;;3.35;;
63046;SDS011;62025;39.238;9.126;2023-05-09T10:17:00;4.82;;;3.38;;
63046;SDS011;62025;39.238;9.126;2023-05-09T10:19:28;4.25;;;3.15;;
63046;SDS011;62025;39.238;9.126;2023-05-09T10:22:05;5.65;;;3.58;;
63046;SDS011;62025;39.238;9.126;2023-05-09T10:24:43;3.88;;;3.47;;
63046;SDS011;62025;39.238;9.126;2023-05-09T10:27:20;8.77;;;3.30;;
63046;SDS011;62025;39.238;9.126;2023-05-09T10:29:56;8.10;;;3.50;;
63046;SDS011;62025;39.238;9.126;2023-05-09T10:32:30;7.25;;;4.25;;
63046;SDS011;62025;39.238;9.126;2023-05-09T10:35:05;8.57;;;3.22;;
63046;SDS011;62025;39.238;9.126;2023-05-09T10:37:35;4.82;;;2.90;;
63046;SDS011;62025;39.238;9.126;2023-05-09T10:40:02;5.72;;;3.20;;
63046;SDS011;62025;39.238;9.126;2023-05-09T10:42:29;6.67;;;3.50;;
63046;SDS011;62025;39.238;9.126;2023-05-09T10:44:56;7.15;;;2.80;;
63046;SDS011;62025;39.238;9.126;2023-05-09T10:47:24;12.32;;;3.53;;
63046;SDS011;62025;39.238;9.126;2023-05-09T10:49:52;4.80;;;2.95;;
63046;SDS011;62025;39.238;9.126;2023-05-09T10:52:22;4.43;;;3.00;;
63046;SDS011;62025;39.238;9.126;2023-05-09T10:54:58;4.22;;;2.80;;
63046;SDS011;62025;39.238;9.126;2023-05-09T10:57:27;6.00;;;3.00;;
63046;SDS011;62025;39.238;9.126;2023-05-09T10:59:55;6.20;;;2.58;;
63046;SDS011;62025;39.238;9.126;2023-05-09T11:02:23;4.85;;;3.45;;
63046;SDS011;62025;39.238;9.126;2023-05-09T11:07:44;3.65;;;2.80;;
63046;SDS011;62025;39.238;9.126;2023-05-09T11:13:00;6.30;;;3.45;;
63046;SDS011;62025;39.238;9.126;2023-05-09T11:15:25;4.80;;;2.90;;
63046;SDS011;62025;39.238;9.126;2023-05-09T11:20:51;3.78;;;2.75;;
63046;SDS011;62025;39.238;9.126;2023-05-09T11:23:17;3.65;;;3.20;;
63046;SDS011;62025;39.238;9.126;2023-05-09T11:25:45;6.25;;;3.40;;
63046;SDS011;62025;39.238;9.126;2023-05-09T11:28:29;3.83;;;3.30;;
63046;SDS011;62025;39.238;9.126;2023-05-09T11:31:13;6.20;;;3.10;;
63046;SDS011;62025;39.238;9.126;2023-05-09T11:33:42;5.88;;;3.20;;
63046;SDS011;62025;39.238;9.126;2023-05-09T11:39:08;5.25;;;3.00;;
63046;SDS011;62025;39.238;9.126;2023-05-09T11:41:37;4.10;;;3.70;;
63046;SDS011;62025;39.238;9.126;2023-05-09T11:44:19;5.60;;;2.83;;
63046;SDS011;62025;39.238;9.126;2023-05-09T11:46:46;4.63;;;3.08;;
63046;SDS011;62025;39.238;9.126;2023-05-09T11:49:13;4.40;;;3.13;;
63046;SDS011;62025;39.238;9.126;2023-05-09T11:51:41;4.97;;;3.03;;
63046;SDS011;62025;39.238;9.126;2023-05-09T11:54:08;9.90;;;3.50;;
63046;SDS011;62025;39.238;9.126;2023-05-09T11:56:37;5.30;;;3.20;;
63046;SDS011;62025;39.238;9.126;2023-05-09T11:59:05;4.20;;;3.33;;
63046;SDS011;62025;39.238;9.126;2023-05-09T12:01:32;4.85;;;3.20;;
63046;SDS011;62025;39.238;9.126;2023-05-09T12:04:00;7.30;;;3.03;;
63046;SDS011;62025;39.238;9.126;2023-05-09T12:06:27;4.65;;;3.00;;
63046;SDS011;62025;39.238;9.126;2023-05-09T12:08:54;5.10;;;3.17;;
63046;SDS011;62025;39.238;9.126;2023-05-09T12:11:21;6.53;;;3.25;;
63046;SDS011;62025;39.238;9.126;2023-05-09T12:13:49;4.65;;;3.65;;
63046;SDS011;62025;39.238;9.126;2023-05-09T12:16:17;5.13;;;3.08;;
63046;SDS011;62025;39.238;9.126;2023-05-09T12:18:45;6.10;;;3.25;;
63046;SDS011;62025;39.238;9.126;2023-05-09T12:21:13;8.45;;;3.22;;
63046;SDS011;62025;39.238;9.126;2023-05-09T12:23:40;6.53;;;3.47;;
63046;SDS011;62025;39.238;9.126;2023-05-09T12:26:06;9.68;;;3.30;;
63046;SDS011;62025;39.238;9.126;2023-05-09T12:28:32;4.13;;;3.00;;
63046;SDS011;62025;39.238;9.126;2023-05-09T12:31:00;5.78;;;3.33;;
63046;SDS011;62025;39.238;9.126;2023-05-09T12:33:26;4.80;;;3.38;;
63046;SDS011;62025;39.238;9.126;2023-05-09T12:36:10;5.63;;;3.50;;
63046;SDS011;62025;39.238;9.126;2023-05-09T12:38:37;9.77;;;3.65;;
63046;SDS011;62025;39.238;9.126;2023-05-09T12:41:05;9.05;;;3.92;;
63046;SDS011;62025;39.238;9.126;2023-05-09T12:43:34;5.32;;;3.65;;
63046;SDS011;62025;39.238;9.126;2023-05-09T12:46:04;7.13;;;3.53;;
63046;SDS011;62025;39.238;9.126;2023-05-09T12:48:34;5.70;;;3.60;;
63046;SDS011;62025;39.238;9.126;2023-05-09T12:51:05;5.43;;;3.28;;
63046;SDS011;62025;39.238;9.126;2023-05-09T12:53:35;7.38;;;3.65;;
63046;SDS011;62025;39.238;9.126;2023-05-09T12:56:04;6.70;;;3.80;;
63046;SDS011;62025;39.238;9.126;2023-05-09T12:58:51;7.70;;;3.80;;
63046;SDS011;62025;39.238;9.126;2023-05-09T13:01:19;9.82;;;3.92;;
63046;SDS011;62025;39.238;9.126;2023-05-09T13:03:51;7.22;;;3.53;;
63046;SDS011;62025;39.238;9.126;2023-05-09T13:06:28;9.70;;;3.70;;
63046;SDS011;62025;39.238;9.126;2023-05-09T13:08:58;6.82;;;3.88;;
63046;SDS011;62025;39.238;9.126;2023-05-09T13:11:26;5.72;;;3.90;;
63046;SDS011;62025;39.238;9.126;2023-05-09T13:13:53;10.20;;;4.07;;
63046;SDS011;62025;39.238;9.126;2023-05-09T13:16:20;6.57;;;3.72;;
63046;SDS011;62025;39.238;9.126;2023-05-09T13:18:46;7.45;;;3.78;;
63046;SDS011;62025;39.238;9.126;2023-05-09T13:21:12;12.10;;;4.07;;
63046;SDS011;62025;39.238;9.126;2023-05-09T13:23:38;9.60;;;4.03;;
63046;SDS011;62025;39.238;9.126;2023-05-09T13:26:06;5.13;;;3.70;;
63046;SDS011;62025;39.238;9.126;2023-05-09T13:28:32;6.05;;;3.70;;
63046;SDS011;62025;39.238;9.126;2023-05-09T13:30:58;7.88;;;4.20;;
63046;SDS011;62025;39.238;9.126;2023-05-09T13:33:25;7.15;;;3.35;;
63046;SDS011;62025;39.238;9.126;2023-05-09T13:35:51;7.50;;;4.00;;
63046;SDS011;62025;39.238;9.126;2023-05-09T13:38:17;8.30;;;3.90;;
63046;SDS011;62025;39.238;9.126;2023-05-09T13:40:44;11.27;;;4.10;;
63046;SDS011;62025;39.238;9.126;2023-05-09T13:43:09;9.43;;;3.92;;
63046;SDS011;62025;39.238;9.126;2023-05-09T13:45:35;7.13;;;3.88;;
63046;SDS011;62025;39.238;9.126;2023-05-09T13:48:01;8.02;;;4.07;;
63046;SDS011;62025;39.238;9.126;2023-05-09T13:50:28;7.95;;;3.90;;
63046;SDS011;62025;39.238;9.126;2023-05-09T13:52:54;8.07;;;4.10;;
63046;SDS011;62025;39.238;9.126;2023-05-09T13:55:20;7.03;;;4.20;;
63046;SDS011;62025;39.238;9.126;2023-05-09T13:57:46;6.65;;;4.18;;
63046;SDS011;62025;39.238;9.126;2023-05-09T14:00:12;6.97;;;3.97;;
63046;SDS011;62025;39.238;9.126;2023-05-09T14:02:40;8.57;;;4.30;;
63046;SDS011;62025;39.238;9.126;2023-05-09T14:05:06;5.35;;;3.72;;
63046;SDS011;62025;39.238;9.126;2023-05-09T14:07:33;9.02;;;4.05;;
63046;SDS011;62025;39.238;9.126;2023-05-09T14:09:59;6.03;;;3.95;;
63046;SDS011;62025;39.238;9.126;2023-05-09T14:12:26;7.30;;;3.75;;
63046;SDS011;62025;39.238;9.126;2023-05-09T14:14:53;7.10;;;4.07;;
63046;SDS011;62025;39.238;9.126;2023-05-09T14:17:19;11.27;;;3.80;;
63046;SDS011;62025;39.238;9.126;2023-05-09T14:19:45;5.13;;;3.60;;
63046;SDS011;62025;39.238;9.126;2023-05-09T14:22:11;4.78;;;3.60;;
63046;SDS011;62025;39.238;9.126;2023-05-09T14:24:37;6.00;;;3.60;;
63046;SDS011;62025;39.238;9.126;2023-05-09T14:27:03;8.10;;;4.25;;
63046;SDS011;62025;39.238;9.126;2023-05-09T14:29:29;3.90;;;3.50;;
63046;SDS011;62025;39.238;9.126;2023-05-09T14:31:56;6.68;;;3.97;;
63046;SDS011;62025;39.238;9.126;2023-05-09T14:34:21;5.72;;;3.85;;
63046;SDS011;62025;39.238;9.126;2023-05-09T14:36:47;7.55;;;3.78;;
63046;SDS011;62025;39.238;9.126;2023-05-09T14:39:14;6.78;;;3.47;;
63046;SDS011;62025;39.238;9.126;2023-05-09T14:41:40;7.95;;;3.88;;
63046;SDS011;62025;39.238;9.126;2023-05-09T14:44:06;6.93;;;3.60;;
63046;SDS011;62025;39.238;9.126;2023-05-09T14:46:32;9.15;;;3.92;;
63046;SDS011;62025;39.238;9.126;2023-05-09T14:48:58;4.70;;;3.40;;
63046;SDS011;62025;39.238;9.126;2023-05-09T14:51:28;7.40;;;3.70;;
63046;SDS011;62025;39.238;9.126;2023-05-09T14:53:56;4.73;;;3.67;;
63046;SDS011;62025;39.238;9.126;2023-05-09T14:56:22;6.78;;;3.53;;
63046;SDS011;62025;39.238;9.126;2023-05-09T14:58:48;5.63;;;3.38;;
63046;SDS011;62025;39.238;9.126;2023-05-09T15:01:14;5.18;;;3.20;;
63046;SDS011;62025;39.238;9.126;2023-05-09T15:03:40;7.60;;;3.72;;
63046;SDS011;62025;39.238;9.126;2023-05-09T15:06:06;6.10;;;3.72;;
63046;SDS011;62025;39.238;9.126;2023-05-09T15:08:32;6.28;;;3.97;;
63046;SDS011;62025;39.238;9.126;2023-05-09T15:10:59;5.00;;;3.53;;
63046;SDS011;62025;39.238;9.126;2023-05-09T15:13:25;6.28;;;3.60;;
63046;SDS011;62025;39.238;9.126;2023-05-09T15:15:51;6.95;;;3.30;;
63046;SDS011;62025;39.238;9.126;2023-05-09T15:18:17;5.25;;;3.60;;
63046;SDS011;62025;39.238;9.126;2023-05-09T15:20:45;6.82;;;3.50;;
63046;SDS011;62025;39.238;9.126;2023-05-09T15:23:11;5.00;;;3.30;;
63046;SDS011;62025;39.238;9.126;2023-05-09T15:25:39;6.63;;;3.55;;
63046;SDS011;62025;39.238;9.126;2023-05-09T15:28:06;4.60;;;3.40;;
63046;SDS011;62025;39.238;9.126;2023-05-09T15:30:32;6.80;;;3.80;;
63046;SDS011;62025;39.238;9.126;2023-05-09T15:33:00;5.85;;;3.80;;